Time;durP1;ratioP1;P1;durP2;ratioP2;P2;SDS_P1;SDS_P2;PMS_P1;PMS_P2;Temp;Humidity;BMP_temperature;BMP_pressure;BME280_temperature;BME280_humidity;BME280_pressure;Samples;Min_cycle;Max_cycle;Signal;HPM_P1;HPM_P2
2022/07/09 00:01:02;;;;;;;0.90;0.20;;;;;;;15.00;100.00;101409.59;7400251;19;20029;-87
2022/07/09 00:03:29;;;;;;;1.05;0.52;;;;;;;14.95;100.00;101411.00;7409050;19;20014;-88
2022/07/09 00:05:55;;;;;;;1.38;0.40;;;;;;;14.88;100.00;101416.91;7412713;19;20054;-89
2022/07/09 00:08:24;;;;;;;1.13;0.40;;;;;;;14.80;100.00;101409.28;7411017;19;20014;-88
2022/07/09 00:10:50;;;;;;;0.63;0.50;;;;;;;14.70;100.00;101416.94;7407304;19;20019;-89
2022/07/09 00:13:17;;;;;;;1.45;0.63;;;;;;;14.53;100.00;101412.06;7403540;19;20014;-87
2022/07/09 00:15:43;;;;;;;1.27;0.70;;;;;;;14.46;100.00;101418.75;7401439;19;20021;-89
2022/07/09 00:18:09;;;;;;;12.30;0.93;;;;;;;14.47;100.00;101414.69;7406485;19;20022;-89
2022/07/09 00:20:35;;;;;;;1.10;0.15;;;;;;;14.50;100.00;101413.78;7411702;19;20492;-89
2022/07/09 00:23:02;;;;;;;2.00;0.40;;;;;;;14.56;100.00;101409.09;7405984;19;20014;-89
2022/07/09 00:25:28;;;;;;;6.10;0.52;;;;;;;14.58;100.00;101403.03;7399058;19;20011;-87
2022/07/09 00:27:54;;;;;;;4.97;1.05;;;;;;;14.62;100.00;101404.44;7400729;19;20025;-88
2022/07/09 00:30:20;;;;;;;2.60;0.77;;;;;;;14.59;100.00;101405.38;7406714;19;20021;-89
2022/07/09 00:32:46;;;;;;;2.92;0.52;;;;;;;14.59;100.00;101405.38;7399469;19;20010;-88
2022/07/09 00:35:13;;;;;;;2.03;1.15;;;;;;;14.58;100.00;101408.63;7397895;19;20026;-88
2022/07/09 00:37:39;;;;;;;3.35;1.00;;;;;;;14.55;100.00;101396.34;7399452;19;20036;-88
2022/07/09 00:40:06;;;;;;;1.55;0.32;;;;;;;14.54;100.00;101397.56;7403667;19;20010;-88
2022/07/09 00:42:32;;;;;;;5.90;0.55;;;;;;;14.53;100.00;101401.63;7400202;19;20042;-88
2022/07/09 00:44:58;;;;;;;1.48;0.63;;;;;;;14.60;100.00;101408.94;7398044;19;20010;-89
2022/07/09 00:47:24;;;;;;;1.83;0.43;;;;;;;14.73;100.00;101410.38;7400210;19;20456;-89
2022/07/09 00:49:51;;;;;;;0.90;0.77;;;;;;;14.77;100.00;101391.34;7402462;19;20372;-88
2022/07/09 00:52:17;;;;;;;2.40;1.13;;;;;;;14.91;100.00;101403.97;7399578;19;20026;-89
2022/07/09 00:54:45;;;;;;;8.38;0.88;;;;;;;14.99;100.00;101394.78;7397794;19;20033;-90
2022/07/09 00:57:12;;;;;;;2.72;1.17;;;;;;;15.04;100.00;101394.16;7398253;19;20018;-88
2022/07/09 00:59:39;;;;;;;3.00;0.68;;;;;;;15.12;100.00;101386.97;7401098;19;20048;-85
2022/07/09 01:02:09;;;;;;;5.22;1.20;;;;;;;15.20;100.00;101384.63;7398007;19;20014;-86
2022/07/09 01:04:36;;;;;;;3.22;0.93;;;;;;;15.31;100.00;101387.72;7396915;19;20476;-86
2022/07/09 01:07:03;;;;;;;0.80;0.30;;;;;;;15.34;100.00;101386.00;7398324;19;20011;-86
2022/07/09 01:09:30;;;;;;;2.35;1.63;;;;;;;15.39;100.00;101379.75;7402346;19;20014;-86
2022/07/09 01:11:57;;;;;;;3.03;1.13;;;;;;;15.45;100.00;101375.88;7396310;19;20079;-86
2022/07/09 01:14:23;;;;;;;2.00;0.70;;;;;;;15.44;100.00;101384.78;7395548;19;20014;-84
2022/07/09 01:17:01;;;;;;;8.00;1.35;;;;;;;15.44;100.00;101374.28;7397903;19;20025;-85
2022/07/09 01:19:28;;;;;;;2.88;0.98;;;;;;;15.54;100.00;101366.63;7398364;19;20060;-85
2022/07/09 01:21:54;;;;;;;2.33;0.77;;;;;;;15.47;100.00;101366.97;7395125;19;20473;-86
2022/07/09 01:24:22;;;;;;;5.60;1.35;;;;;;;15.49;100.00;101364.47;7400445;19;20038;-84
2022/07/09 01:26:50;;;;;;;3.95;1.38;;;;;;;15.50;100.00;101360.41;7396323;19;20041;-87
2022/07/09 01:29:17;;;;;;;2.22;1.20;;;;;;;15.56;100.00;101369.75;7398948;19;20014;-87
2022/07/09 01:31:43;;;;;;;3.30;1.10;;;;;;;15.59;100.00;101363.94;7395475;19;20021;-87
2022/07/09 01:34:09;;;;;;;8.85;1.05;;;;;;;15.60;100.00;101365.53;7395458;19;20351;-87
2022/07/09 01:36:35;;;;;;;7.28;0.80;;;;;;;15.63;100.00;101355.38;7396646;19;20026;-89
2022/07/09 01:39:02;;;;;;;2.33;0.90;;;;;;;15.68;100.00;101355.50;7399104;19;20026;-89
2022/07/09 01:41:28;;;;;;;4.55;1.15;;;;;;;15.75;100.00;101348.75;7398677;19;20066;-88
2022/07/09 01:43:54;;;;;;;4.38;1.75;;;;;;;15.73;100.00;101352.06;7396909;19;20021;-88
2022/07/09 01:46:20;;;;;;;5.05;1.15;;;;;;;15.80;100.00;101351.72;7395540;19;20018;-88
2022/07/09 01:48:46;;;;;;;1.42;0.60;;;;;;;15.90;100.00;101355.25;7393319;19;20358;-88
2022/07/09 01:51:13;;;;;;;4.95;1.48;;;;;;;15.95;100.00;101360.22;7393551;19;20014;-89
2022/07/09 01:53:42;;;;;;;2.95;0.75;;;;;;;15.98;100.00;101353.66;7398290;19;20018;-88
2022/07/09 01:56:09;;;;;;;1.27;0.50;;;;;;;16.03;100.00;101364.22;7396316;19;20014;-87
2022/07/09 01:58:36;;;;;;;5.25;1.70;;;;;;;16.10;100.00;101363.09;7397097;19;20021;-89
2022/07/09 02:01:03;;;;;;;4.93;1.83;;;;;;;16.17;100.00;101369.16;7397404;19;20046;-89
2022/07/09 02:03:29;;;;;;;2.97;1.13;;;;;;;16.23;100.00;101378.47;7396893;19;20021;-88
2022/07/09 02:05:56;;;;;;;1.65;0.45;;;;;;;16.28;100.00;101369.41;7407715;19;20384;-88
2022/07/09 02:08:23;;;;;;;4.82;1.50;;;;;;;16.32;100.00;101364.38;7413574;19;20024;-89
2022/07/09 02:10:50;;;;;;;4.95;1.55;;;;;;;16.35;100.00;101366.22;7401590;19;20046;-89
2022/07/09 02:13:17;;;;;;;6.38;1.50;;;;;;;16.39;100.00;101369.66;7401938;19;20018;-89
2022/07/09 02:15:44;;;;;;;2.60;0.88;;;;;;;16.39;100.00;101369.66;7395086;19;20015;-89
2022/07/09 02:18:10;;;;;;;9.77;0.95;;;;;;;16.41;100.00;101367.13;7397126;19;20051;-88
2022/07/09 02:20:37;;;;;;;6.65;1.85;;;;;;;16.44;100.00;101368.19;7401270;19;20017;-88
2022/07/09 02:23:03;;;;;;;5.60;2.03;;;;;;;16.47;100.00;101365.22;7394992;19;20022;-88
2022/07/09 02:25:30;;;;;;;6.63;1.67;;;;;;;16.50;100.00;101360.69;7394676;19;20025;-89
2022/07/09 02:27:56;;;;;;;3.88;1.15;;;;;;;16.52;100.00;101361.75;7396625;19;20028;-89
2022/07/09 02:30:22;;;;;;;11.80;2.10;;;;;;;16.54;100.00;101359.25;7402526;19;20067;-89
2022/07/09 02:32:48;;;;;;;6.28;1.95;;;;;;;16.56;100.00;101368.00;7396547;19;20022;-89
2022/07/09 02:35:14;;;;;;;3.72;1.35;;;;;;;16.57;100.00;101366.72;7395109;19;20473;-87
2022/07/09 02:37:42;;;;;;;8.70;1.30;;;;;;;16.56;100.00;101359.56;7394286;19;20074;-88
2022/07/09 02:40:08;;;;;;;5.00;1.92;;;;;;;16.57;100.00;101352.66;7400038;19;20361;-88
2022/07/09 02:42:36;;;;;;;5.95;1.92;;;;;;;16.60;100.00;101348.88;7394083;19;20032;-88
2022/07/09 02:45:03;;;;;;;4.60;1.77;;;;;;;16.58;100.00;101345.78;7393415;19;20018;-88
2022/07/09 02:47:29;;;;;;;11.32;1.25;;;;;;;16.57;100.00;101349.84;7396076;19;20460;-88
2022/07/09 02:49:56;;;;;;;9.15;2.00;;;;;;;16.56;100.00;101353.13;7400065;19;20025;-87
2022/07/09 02:52:22;;;;;;;3.88;1.48;;;;;;;16.51;100.00;101359.41;7397570;19;20028;-88
2022/07/09 02:54:48;;;;;;;7.28;1.38;;;;;;;16.50;100.00;101366.31;7394215;19;20018;-88
2022/07/09 02:57:14;;;;;;;6.47;2.42;;;;;;;16.53;100.00;101357.69;7395476;19;20011;-88
2022/07/09 02:59:40;;;;;;;4.55;1.23;;;;;;;16.56;100.00;101353.94;7400572;19;20386;-88
2022/07/09 03:02:06;;;;;;;5.88;1.67;;;;;;;16.56;100.00;101351.13;7395378;19;20037;-88
2022/07/09 03:04:33;;;;;;;2.85;1.50;;;;;;;16.58;100.00;101347.81;7394418;19;20014;-88
2022/07/09 03:06:59;;;;;;;11.95;2.28;;;;;;;16.56;100.00;101351.13;7396131;19;20010;-88
2022/07/09 03:09:25;;;;;;;3.00;1.25;;;;;;;16.61;100.00;101344.81;7398605;19;20046;-89
2022/07/09 03:11:51;;;;;;;6.15;1.23;;;;;;;16.63;100.00;101347.91;7394806;19;20010;-88
2022/07/09 03:14:17;;;;;;;2.95;1.38;;;;;;;16.64;100.00;101341.03;7395903;19;20792;-88
2022/07/09 03:16:43;;;;;;;5.00;0.98;;;;;;;16.62;100.00;101332.31;7396031;19;20010;-88
2022/07/09 03:19:09;;;;;;;7.43;1.73;;;;;;;16.63;100.00;101342.28;7396777;19;20006;-88
2022/07/09 03:21:35;;;;;;;6.32;1.10;;;;;;;16.65;100.00;101348.19;7395691;19;20014;-88
2022/07/09 03:24:02;;;;;;;10.27;1.60;;;;;;;16.64;100.00;101345.88;7397023;19;20019;-88
2022/07/09 03:26:28;;;;;;;3.90;1.38;;;;;;;16.62;100.00;101345.59;7394568;19;20007;-88
2022/07/09 03:28:54;;;;;;;6.22;2.63;;;;;;;16.61;100.00;101339.19;7394380;19;20571;-88
2022/07/09 03:31:20;;;;;;;4.55;1.65;;;;;;;16.61;100.00;101342.00;7392405;19;20035;-88
2022/07/09 03:33:46;;;;;;;7.32;1.88;;;;;;;16.61;100.00;101347.63;7393019;19;20786;-88
2022/07/09 03:36:12;;;;;;;2.45;1.27;;;;;;;16.60;100.00;101336.84;7400252;19;20018;-88
2022/07/09 03:38:39;;;;;;;6.85;1.90;;;;;;;16.63;100.00;101341.53;7402916;19;20014;-88
2022/07/09 03:41:05;;;;;;;8.23;1.52;;;;;;;16.64;100.00;101341.03;7401928;19;20007;-88
2022/07/09 03:43:31;;;;;;;5.40;1.58;;;;;;;16.65;100.00;101342.56;7400759;19;20019;-88
2022/07/09 03:45:58;;;;;;;6.57;1.20;;;;;;;16.63;100.00;101339.47;7399822;19;20036;-88
2022/07/09 03:48:24;;;;;;;4.25;1.45;;;;;;;16.62;100.00;101352.00;7403319;19;20072;-88
2022/07/09 03:50:50;;;;;;;1.70;0.77;;;;;;;16.58;100.00;101348.59;7402562;19;20018;-88
2022/07/09 03:53:17;;;;;;;4.32;1.80;;;;;;;16.58;100.00;101345.00;7404169;19;20373;-88
2022/07/09 03:55:43;;;;;;;5.07;1.10;;;;;;;16.59;100.00;101344.50;7397996;19;20036;-87
2022/07/09 03:58:10;;;;;;;2.50;0.65;;;;;;;16.61;100.00;101350.44;7401476;19;20453;-88
2022/07/09 04:00:36;;;;;;;2.20;0.95;;;;;;;16.66;100.00;101349.78;7405452;19;20037;-88
2022/07/09 04:03:03;;;;;;;2.97;1.30;;;;;;;16.66;100.00;101349.78;7400656;19;20018;-89
2022/07/09 04:05:29;;;;;;;1.50;0.55;;;;;;;16.64;100.00;101351.50;7399102;19;20018;-88
2022/07/09 04:07:55;;;;;;;0.85;0.50;;;;;;;16.66;100.00;101341.34;7399870;19;20338;-88
2022/07/09 04:10:21;;;;;;;2.50;0.52;;;;;;;16.64;100.00;101335.41;7397619;19;20042;-88
2022/07/09 04:12:47;;;;;;;2.05;0.50;;;;;;;16.64;100.00;101341.03;7392474;19;20042;-88
2022/07/09 04:15:13;;;;;;;1.95;0.70;;;;;;;16.66;100.00;101335.72;7391668;19;20410;-88
2022/07/09 04:17:39;;;;;;;2.85;0.77;;;;;;;16.68;100.00;101335.22;7393685;19;20071;-88
2022/07/09 04:20:06;;;;;;;3.22;0.65;;;;;;;16.74;100.00;101332.53;7403741;19;20380;-88
2022/07/09 04:22:33;;;;;;;2.50;1.20;;;;;;;16.77;100.00;101331.53;7400515;19;20020;-88
2022/07/09 04:24:59;;;;;;;2.45;0.65;;;;;;;16.72;100.00;101335.03;7400247;19;20561;-88
2022/07/09 04:27:25;;;;;;;4.43;0.70;;;;;;;16.75;100.00;101339.69;7401312;19;20033;-88
2022/07/09 04:29:51;;;;;;;0.75;0.30;;;;;;;16.73;100.00;101334.56;7403195;19;20037;-87
2022/07/09 04:32:17;;;;;;;2.85;0.82;;;;;;;16.75;100.00;101339.69;7399079;19;20380;-88
2022/07/09 04:34:43;;;;;;;2.25;0.90;;;;;;;16.74;100.00;101333.28;7398624;19;20022;-88
2022/07/09 04:37:10;;;;;;;2.63;1.10;;;;;;;16.75;100.00;101339.69;7399562;19;20025;-87
2022/07/09 04:39:36;;;;;;;1.27;0.55;;;;;;;16.81;100.00;101338.53;7401869;19;20353;-88
2022/07/09 04:42:02;;;;;;;2.75;0.80;;;;;;;16.80;100.00;101337.00;7399519;19;20010;-88
2022/07/09 04:44:28;;;;;;;7.63;0.75;;;;;;;16.82;100.00;101351.34;7396637;19;20022;-88
2022/07/09 04:46:54;;;;;;;0.20;0.15;;;;;;;16.81;100.00;101354.63;7394710;19;20015;-88
2022/07/09 04:49:24;;;;;;;5.00;0.32;;;;;;;16.81;100.00;101354.63;7400297;19;20006;-88
2022/07/09 04:51:50;;;;;;;1.25;0.30;;;;;;;16.81;100.00;101344.16;7395004;19;20460;-89
2022/07/09 04:54:19;;;;;;;0.10;0.10;;;;;;;16.86;100.00;101339.91;7401114;19;20367;-88
2022/07/09 04:56:45;;;;;;;0.35;0.20;;;;;;;16.83;100.00;101340.88;7398208;19;20030;-88
2022/07/09 04:59:11;;;;;;;0.20;0.00;;;;;;;16.75;100.00;101345.31;7402187;19;20014;-88
2022/07/09 05:01:37;;;;;;;0.40;0.40;;;;;;;16.66;100.00;101349.78;7398777;19;20010;-87
2022/07/09 05:04:04;;;;;;;0.13;0.13;;;;;;;16.54;100.00;101348.00;7405865;19;20022;-87
2022/07/09 05:06:30;;;;;;;1.17;0.57;;;;;;;16.61;100.00;101353.25;7411381;19;20010;-87
2022/07/09 05:08:56;;;;;;;1.50;0.43;;;;;;;16.67;100.00;101356.94;7395983;19;20027;-88
2022/07/09 05:11:22;;;;;;;0.63;0.13;;;;;;;16.79;100.00;101363.56;7403430;19;20077;-88
2022/07/09 05:13:48;;;;;;;0.35;0.20;;;;;;;16.84;100.00;101351.66;7396731;19;20014;-88
2022/07/09 05:16:14;;;;;;;0.10;0.10;;;;;;;16.92;100.00;101350.00;7398897;19;20010;-87
2022/07/09 05:18:40;;;;;;;0.57;0.15;;;;;;;16.89;100.00;101364.28;7399647;19;20461;-90
2022/07/09 05:21:07;;;;;;;0.30;0.00;;;;;;;16.80;100.00;101358.72;7398453;19;20015;-88
2022/07/09 05:23:33;;;;;;;0.30;0.10;;;;;;;16.74;100.00;101360.66;7399863;19;20015;-88
2022/07/09 05:25:59;;;;;;;0.20;0.00;;;;;;;16.65;100.00;101356.63;7396609;19;20011;-92
2022/07/09 05:28:25;;;;;;;0.32;0.00;;;;;;;16.50;100.00;101364.25;7398129;19;20011;-90
2022/07/09 05:30:51;;;;;;;0.43;0.10;;;;;;;16.55;100.00;101363.59;7398725;19;20019;-91
2022/07/09 05:33:19;;;;;;;1.00;0.55;;;;;;;16.61;100.00;101372.94;7398588;19;20015;-90
2022/07/09 05:35:45;;;;;;;0.10;0.10;;;;;;;16.66;100.00;101366.66;7396723;19;20021;-90
2022/07/09 05:38:11;;;;;;;0.40;0.30;;;;;;;16.70;100.00;101368.50;7400494;19;20493;-89
2022/07/09 05:40:37;;;;;;;0.05;0.00;;;;;;;16.62;100.00;101371.69;7403045;19;20025;-89
2022/07/09 05:43:04;;;;;;;0.95;0.25;;;;;;;16.58;100.00;101371.09;7398481;19;20015;-89
2022/07/09 05:45:30;;;;;;;0.10;0.10;;;;;;;16.63;100.00;101361.97;7397299;19;20010;-89
2022/07/09 05:47:56;;;;;;;0.10;0.10;;;;;;;16.63;100.00;101355.59;7398452;19;20078;-88
2022/07/09 05:50:22;;;;;;;0.10;0.00;;;;;;;16.68;100.00;101357.72;7402714;19;20591;-88
2022/07/09 05:52:48;;;;;;;0.68;0.13;;;;;;;16.70;100.00;101360.81;7399905;19;20406;-88
2022/07/09 05:55:15;;;;;;;0.10;0.10;;;;;;;16.69;100.00;101370.53;7396845;19;20018;-88
2022/07/09 05:57:41;;;;;;;0.10;0.00;;;;;;;16.74;100.00;101366.28;7398840;19;20019;-88
2022/07/09 06:00:08;;;;;;;0.20;0.00;;;;;;;16.85;100.00;101372.13;7402056;19;20478;-88
2022/07/09 06:02:34;;;;;;;0.10;0.10;;;;;;;16.93;100.00;101374.09;7395795;19;20507;-88
2022/07/09 06:05:00;;;;;;;0.32;0.10;;;;;;;17.07;100.00;101366.91;7395385;19;20014;-88
2022/07/09 06:07:26;;;;;;;0.05;0.00;;;;;;;17.19;100.00;101375.09;7397010;19;20386;-86
2022/07/09 06:09:52;;;;;;;0.10;0.10;;;;;;;17.35;100.00;101385.06;7399626;19;20025;-87
2022/07/09 06:12:18;;;;;;;0.20;0.10;;;;;;;17.64;100.00;101381.50;7396701;19;20021;-88
2022/07/09 06:14:45;;;;;;;0.32;0.10;;;;;;;17.95;100.00;101378.94;7397290;19;20337;-88
2022/07/09 06:17:11;;;;;;;0.52;0.10;;;;;;;18.35;100.00;101378.19;7398611;19;20019;-88
2022/07/09 06:19:37;;;;;;;0.10;0.03;;;;;;;18.54;100.00;101368.22;7400100;19;20014;-88
2022/07/09 06:22:03;;;;;;;0.63;0.10;;;;;;;18.59;100.00;101371.13;7396499;19;20040;-89
2022/07/09 06:24:30;;;;;;;0.00;0.00;;;;;;;18.48;100.00;101364.56;7395254;19;20018;-88
2022/07/09 06:26:57;;;;;;;0.15;0.05;;;;;;;18.41;100.00;101364.97;7394046;19;20468;-88
2022/07/09 06:29:23;;;;;;;0.00;0.00;;;;;;;18.28;100.00;101367.34;7398422;19;20037;-85
2022/07/09 06:31:49;;;;;;;0.20;0.10;;;;;;;18.07;100.00;101364.50;7394399;19;20007;-87
2022/07/09 06:34:15;;;;;;;0.60;0.25;;;;;;;17.97;100.00;101363.09;7395693;19;20011;-89
2022/07/09 06:36:44;;;;;;;0.85;0.30;;;;;;;17.85;100.00;101380.31;7398793;19;20022;-88
2022/07/09 06:42:07;;;;;;;0.00;0.00;;;;;;;17.65;100.00;101371.81;7395828;19;20014;-89
2022/07/09 06:44:34;;;;;;;0.28;0.10;;;;;;;17.59;100.00;101368.88;7393549;19;20480;-88
2022/07/09 06:47:00;;;;;;;0.10;0.08;;;;;;;17.56;100.00;101375.50;7393839;19;20007;-89
2022/07/09 06:49:27;;;;;;;0.20;0.20;;;;;;;17.58;100.00;101378.59;7395765;19;20074;-88
2022/07/09 06:51:53;;;;;;;0.10;0.00;;;;;;;17.75;100.00;101371.19;7394632;19;20021;-86
2022/07/09 06:54:19;;;;;;;0.00;0.00;;;;;;;17.96;100.00;101374.84;7397636;19;20014;-88
2022/07/09 06:56:46;;;;;;;1.67;0.15;;;;;;;17.93;100.00;101362.50;7396346;19;20023;-86
2022/07/09 06:59:12;;;;;;;4.50;0.45;;;;;;;17.91;100.00;101376.31;7394486;19;20039;-86
2022/07/09 07:01:39;;;;;;;0.13;0.05;;;;;;;18.08;100.00;101360.41;7396005;19;20031;-88
2022/07/09 07:04:05;;;;;;;0.30;0.10;;;;;;;17.94;100.00;101364.06;7393015;19;20021;-87
2022/07/09 07:06:32;;;;;;;0.20;0.10;;;;;;;17.81;100.00;101368.44;7394159;19;20021;-87
2022/07/09 07:08:59;;;;;;;0.20;0.20;;;;;;;17.74;100.00;101366.81;7393192;19;20480;-88
2022/07/09 07:11:25;;;;;;;0.20;0.20;;;;;;;17.75;100.00;101388.09;7394115;19;20060;-91
2022/07/09 07:13:51;;;;;;;0.13;0.08;;;;;;;17.85;100.00;101389.53;7393115;19;20011;-90
2022/07/09 07:16:17;;;;;;;0.10;0.00;;;;;;;17.88;100.00;101387.78;7394586;19;20464;-88
2022/07/09 07:18:43;;;;;;;0.15;0.15;;;;;;;17.99;100.00;101382.31;7393963;19;20015;-90
2022/07/09 07:21:09;;;;;;;0.15;0.10;;;;;;;17.91;100.00;101376.31;7394279;19;20544;-87
2022/07/09 07:23:35;;;;;;;0.10;0.10;;;;;;;17.89;100.00;101376.00;7397839;19;20021;-87
2022/07/09 07:26:02;;;;;;;0.30;0.10;;;;;;;17.89;100.00;101383.69;7394229;19;20852;-89
2022/07/09 07:28:28;;;;;;;0.10;0.10;;;;;;;17.89;100.00;101380.88;7393435;19;20019;-90
2022/07/09 07:30:54;;;;;;;0.10;0.10;;;;;;;17.89;100.00;101387.28;7393664;19;20047;-89
2022/07/09 07:33:20;;;;;;;0.10;0.10;;;;;;;17.98;100.00;101383.56;7394184;19;20038;-89
2022/07/09 07:35:47;;;;;;;0.52;0.10;;;;;;;18.11;100.00;101395.31;7393057;19;20029;-90
2022/07/09 07:38:13;;;;;;;0.00;0.00;;;;;;;18.18;100.00;101392.09;7393032;19;20034;-91
2022/07/09 07:40:40;;;;;;;1.17;0.10;;;;;;;18.28;100.00;101389.91;7400016;19;20110;-91
2022/07/09 07:43:06;;;;;;;0.05;0.05;;;;;;;18.28;100.00;101392.75;7393628;19;20026;-92
2022/07/09 07:45:32;;;;;;;0.08;0.00;;;;;;;18.28;100.00;101389.91;7393028;19;20583;-91
2022/07/09 07:47:58;;;;;;;0.52;0.00;;;;;;;18.45;100.00;101399.41;7394498;19;20010;-92
2022/07/09 07:50:24;;;;;;;2.33;0.38;;;;;;;18.51;100.00;101398.22;7399259;19;20086;-92
2022/07/09 07:52:50;;;;;;;2.63;0.00;;;;;;;18.75;100.00;101392.34;7397368;19;20011;-92
2022/07/09 07:55:16;;;;;;;0.80;0.13;;;;;;;18.88;100.00;101398.41;7391255;19;20014;-91
2022/07/09 07:57:43;;;;;;;2.42;0.20;;;;;;;19.00;100.00;101380.31;7395770;19;20344;-90
2022/07/09 08:00:09;;;;;;;0.08;0.00;;;;;;;19.10;100.00;101390.16;7398049;19;20022;-91
2022/07/09 08:02:38;;;;;;;0.20;0.20;;;;;;;19.06;100.00;101383.97;7400634;19;20006;-92
2022/07/09 08:05:05;;;;;;;0.10;0.10;;;;;;;19.09;100.00;101385.81;7415039;19;19995;-91
2022/07/09 08:07:31;;;;;;;0.10;0.00;;;;;;;19.00;100.00;101388.78;7403729;19;20018;-92
2022/07/09 08:09:57;;;;;;;0.40;0.10;;;;;;;18.98;100.00;101391.34;7411207;19;20019;-88
2022/07/09 08:12:24;;;;;;;1.35;0.20;;;;;;;19.01;100.00;101401.66;7396562;19;20011;-93
2022/07/09 08:14:50;;;;;;;0.30;0.10;;;;;;;18.85;100.00;101405.81;7393312;19;20015;-91
2022/07/09 08:17:16;;;;;;;0.50;0.10;;;;;;;18.62;100.00;101408.88;7398838;19;20405;-91
2022/07/09 08:19:45;;;;;;;1.90;0.30;;;;;;;18.59;100.00;101415.50;7398986;19;20476;-89
2022/07/09 08:22:11;;;;;;;0.00;0.00;;;;;;;18.40;100.00;101400.06;7398874;19;20521;-90
2022/07/09 08:24:37;;;;;;;1.75;0.10;;;;;;;18.69;100.00;101397.91;7403926;19;20070;-90
2022/07/09 08:27:03;;;;;;;0.10;0.00;;;;;;;18.95;100.00;101397.97;7403806;19;20015;-89
2022/07/09 08:29:29;;;;;;;0.10;0.10;;;;;;;18.98;100.00;101396.19;7408559;19;20019;-90
2022/07/09 08:31:55;;;;;;;0.30;0.30;;;;;;;19.12;100.00;101406.63;7406081;19;20002;-87
2022/07/09 08:34:22;;;;;;;0.20;0.10;;;;;;;19.15;100.00;101411.28;7405415;19;20025;-89
2022/07/09 08:36:48;;;;;;;0.20;0.10;;;;;;;19.04;100.00;101409.09;7407031;19;20029;-89
2022/07/09 08:39:14;;;;;;;0.13;0.10;;;;;;;19.18;100.00;101411.06;7408432;19;20022;-91
2022/07/09 08:41:40;;;;;;;0.30;0.03;;;;;;;19.38;100.00;101411.03;7405276;19;20022;-91
2022/07/09 08:44:11;;;;;;;0.10;0.00;;;;;;;19.68;100.00;101408.75;7399400;19;20022;-90
2022/07/09 08:46:40;;;;;;;0.73;0.20;;;;;;;20.09;100.00;101406.47;7396907;19;20046;-90
2022/07/09 08:49:07;;;;;;;0.30;0.20;;;;;;;20.43;100.00;101416.75;7399437;19;20003;-91
2022/07/09 08:51:36;;;;;;;0.10;0.10;;;;;;;20.73;100.00;101412.25;7396758;19;20456;-90
2022/07/09 08:54:03;;;;;;;1.95;0.10;;;;;;;20.75;100.00;101417.41;7401242;19;20047;-90
2022/07/09 08:56:29;;;;;;;1.13;0.40;;;;;;;20.59;100.00;101424.56;7400751;19;20018;-90
2022/07/09 08:58:55;;;;;;;0.75;0.10;;;;;;;20.49;100.00;101409.06;7401596;19;20026;-92
2022/07/09 09:01:21;;;;;;;0.40;0.20;;;;;;;20.42;100.00;101412.38;7401119;19;20404;-88
2022/07/09 09:03:47;;;;;;;4.15;0.10;;;;;;;20.20;100.00;101406.56;7399868;19;20093;-91
2022/07/09 09:06:14;;;;;;;0.63;0.10;;;;;;;20.23;100.00;101414.03;7396457;19;20011;-91
2022/07/09 09:08:42;;;;;;;1.00;0.20;;;;;;;20.15;100.00;101416.56;7395817;19;20020;-92
2022/07/09 09:11:31;;;;;;;2.13;0.20;;;;;;;20.35;100.00;101407.19;7397638;19;20021;-92
2022/07/09 09:13:57;;;;;;;0.50;0.30;;;;;;;20.29;100.00;101412.03;7397944;19;20014;-91
2022/07/09 09:16:23;;;;;;;0.52;0.10;;;;;;;20.43;100.00;101399.75;7400896;19;20011;-92
2022/07/09 09:18:52;;;;;;;0.00;0.00;;;;;;;20.57;100.00;101410.13;7401248;19;20027;-92
2022/07/09 09:21:21;;;;;;;0.10;0.10;;;;;;;20.88;100.00;101401.50;7399043;19;20018;-89
2022/07/09 09:23:55;;;;;;;0.20;0.10;;;;;;;21.00;100.00;101403.09;7400968;19;20010;-92
2022/07/09 09:26:23;;;;;;;0.10;0.10;;;;;;;20.90;100.00;101403.81;7395139;19;20035;-91
2022/07/09 09:29:01;;;;;;;0.38;0.10;;;;;;;20.80;100.00;101406.13;7399047;19;20006;-94
2022/07/09 09:31:35;;;;;;;0.10;0.08;;;;;;;20.95;100.00;101412.34;7398472;19;20081;-96
2022/07/09 09:34:04;;;;;;;0.50;0.40;;;;;;;21.31;100.00;101429.72;7396177;19;20104;-91
2022/07/09 09:36:34;;;;;;;0.63;0.10;;;;;;;21.60;100.00;101415.06;7402168;19;20018;-92
2022/07/09 09:39:29;;;;;;;3.20;0.47;;;;;;;21.96;100.00;101416.88;7408054;19;20349;-96
2022/07/09 09:41:59;;;;;;;0.30;0.20;;;;;;;22.08;100.00;101421.28;7400668;19;20018;-94
2022/07/09 09:44:29;;;;;;;0.20;0.10;;;;;;;22.25;100.00;101413.50;7398008;19;20031;-93
2022/07/09 09:46:56;;;;;;;0.40;0.10;;;;;;;22.35;100.00;101409.06;7395288;19;20039;-94
2022/07/09 09:49:23;;;;;;;5.47;0.95;;;;;;;22.22;100.00;101408.84;7401211;19;20485;-96
2022/07/09 09:52:11;;;;;;;0.55;0.17;;;;;;;21.95;100.00;101414.56;7396691;19;20022;-94
2022/07/09 09:54:40;;;;;;;0.20;0.10;;;;;;;21.85;100.00;101411.25;7396615;19;20014;-93
2022/07/09 09:57:09;;;;;;;0.10;0.00;;;;;;;21.90;100.00;101410.44;7398821;19;20040;-95
2022/07/09 09:59:40;;;;;;;0.20;0.10;;;;;;;22.00;100.00;101420.25;7400782;19;20018;-92
2022/07/09 10:02:11;;;;;;;1.27;0.20;;;;;;;22.09;100.00;101419.97;7401593;19;20026;-94
2022/07/09 10:04:42;;;;;;;0.20;0.10;;;;;;;22.19;100.00;101412.75;7398337;19;20011;-95
2022/07/09 10:07:10;;;;;;;0.03;0.00;;;;;;;22.33;100.00;101405.22;7397902;19;20019;-95
2022/07/09 10:09:36;;;;;;;1.42;0.22;;;;;;;22.62;100.00;101410.31;7400610;19;20024;-96
2022/07/09 10:12:03;;;;;;;0.10;0.00;;;;;;;22.91;100.00;101411.75;7398983;19;20014;-93
2022/07/09 10:14:32;;;;;;;4.10;0.10;;;;;;;22.95;100.00;101406.56;7397427;19;20021;-91
2022/07/09 10:17:15;;;;;;;0.60;0.15;;;;;;;23.12;100.00;101410.88;7400186;19;20829;-92
2022/07/09 10:19:53;;;;;;;0.15;0.08;;;;;;;22.84;100.00;101418.75;7405269;19;20022;-90
2022/07/09 10:22:19;;;;;;;0.65;0.10;;;;;;;22.58;100.00;101421.94;7399779;19;20015;-86
2022/07/09 10:24:48;;;;;;;0.85;0.10;;;;;;;22.52;100.00;101412.63;7395984;19;20007;-86
2022/07/09 10:27:14;;;;;;;2.95;0.10;;;;;;;22.57;100.00;101408.25;7396607;19;20007;-87
2022/07/09 10:29:54;;;;;;;0.80;0.00;;;;;;;22.83;100.00;101407.91;7400098;19;20029;-85
2022/07/09 10:32:33;;;;;;;0.55;0.10;;;;;;;23.02;100.00;101403.16;7399912;19;20116;-89
2022/07/09 10:35:08;;;;;;;0.00;0.00;;;;;;;23.09;100.00;101396.91;7397551;19;20491;-91
2022/07/09 10:37:41;;;;;;;4.40;0.20;;;;;;;23.23;100.00;101399.44;7401872;19;20591;-87
2022/07/09 10:40:12;;;;;;;2.50;0.10;;;;;;;23.37;100.00;101405.31;7412214;19;20015;-89
2022/07/09 10:42:41;;;;;;;2.30;0.00;;;;;;;23.38;100.00;101407.63;7410793;19;20014;-89
2022/07/09 10:45:27;;;;;;;2.15;0.20;;;;;;;22.90;100.00;101410.19;7405335;19;20417;-87
2022/07/09 10:47:56;;;;;;;0.10;0.00;;;;;;;22.88;100.00;101413.56;7396540;19;20479;-90
2022/07/09 10:50:23;;;;;;;0.90;0.10;;;;;;;23.12;100.00;101412.94;7395220;19;20025;-88
2022/07/09 10:52:51;;;;;;;0.10;0.10;;;;;;;23.42;100.00;101410.94;7402388;19;20075;-88
2022/07/09 10:55:19;;;;;;;3.30;0.52;;;;;;;23.40;100.00;101399.34;7402954;19;20460;-91
2022/07/09 10:57:45;;;;;;;1.52;0.00;;;;;;;23.54;100.00;101401.03;7401616;19;20015;-90
2022/07/09 11:00:20;;;;;;;5.30;0.13;;;;;;;23.90;100.00;101401.75;7399717;19;20031;-89
2022/07/09 11:02:55;;;;;;;1.25;0.17;;;;;;;23.84;100.00;101413.22;7411000;19;20015;-91
2022/07/09 11:05:23;;;;;;;0.00;0.00;;;;;;;23.93;100.00;101412.09;7406749;19;20018;-90
2022/07/09 11:08:00;;;;;;;1.00;0.10;;;;;;;23.71;100.00;101410.22;7397831;19;20041;-88
2022/07/09 11:10:27;;;;;;;0.10;0.00;;;;;;;23.58;100.00;101407.22;7399651;19;20023;-93
2022/07/09 11:12:55;;;;;;;2.83;0.10;;;;;;;23.67;100.00;101394.75;7396319;19;20014;-90
2022/07/09 11:15:22;;;;;;;0.20;0.10;;;;;;;23.61;100.00;101406.16;7395107;19;20011;-90
2022/07/09 11:17:58;;;;;;;1.00;0.10;;;;;;;23.39;100.00;101409.16;7394553;19;20025;-88
2022/07/09 11:20:27;;;;;;;0.13;0.10;;;;;;;23.54;100.00;101406.72;7400121;19;20010;-90